sensor_id;sensor_type;location;lat;lon;timestamp;P1;durP1;ratioP1;P2;durP2;ratioP2
31087;SDS011;17745;55.914;37.554;2023-03-11T00:00:09;22.25;;;10.20;;
31087;SDS011;17745;55.914;37.554;2023-03-11T00:02:42;12.90;;;9.32;;
31087;SDS011;17745;55.914;37.554;2023-03-11T00:05:13;22.77;;;10.75;;
31087;SDS011;17745;55.914;37.554;2023-03-11T00:07:43;17.48;;;9.68;;
31087;SDS011;17745;55.914;37.554;2023-03-11T00:10:12;17.50;;;9.40;;
31087;SDS011;17745;55.914;37.554;2023-03-11T00:12:41;16.90;;;9.30;;
31087;SDS011;17745;55.914;37.554;2023-03-11T00:15:09;16.02;;;10.38;;
31087;SDS011;17745;55.914;37.554;2023-03-11T00:17:37;18.35;;;9.43;;
31087;SDS011;17745;55.914;37.554;2023-03-11T00:20:05;17.75;;;10.25;;
31087;SDS011;17745;55.914;37.554;2023-03-11T00:22:36;18.83;;;10.57;;
31087;SDS011;17745;55.914;37.554;2023-03-11T00:25:04;17.87;;;9.55;;
31087;SDS011;17745;55.914;37.554;2023-03-11T00:27:31;16.35;;;9.73;;
31087;SDS011;17745;55.914;37.554;2023-03-11T00:29:59;16.85;;;10.60;;
31087;SDS011;17745;55.914;37.554;2023-03-11T00:32:29;18.75;;;10.35;;
31087;SDS011;17745;55.914;37.554;2023-03-11T00:34:56;16.75;;;9.48;;
31087;SDS011;17745;55.914;37.554;2023-03-11T00:37:24;16.00;;;10.38;;
31087;SDS011;17745;55.914;37.554;2023-03-11T00:39:53;17.70;;;8.85;;
31087;SDS011;17745;55.914;37.554;2023-03-11T00:42:20;22.67;;;9.93;;
31087;SDS011;17745;55.914;37.554;2023-03-11T00:44:48;17.17;;;10.73;;
31087;SDS011;17745;55.914;37.554;2023-03-11T00:47:16;17.52;;;9.80;;
31087;SDS011;17745;55.914;37.554;2023-03-11T00:49:43;14.93;;;9.65;;
31087;SDS011;17745;55.914;37.554;2023-03-11T00:52:13;16.17;;;10.65;;
31087;SDS011;17745;55.914;37.554;2023-03-11T00:54:40;18.50;;;10.68;;
31087;SDS011;17745;55.914;37.554;2023-03-11T00:57:09;16.83;;;10.45;;
31087;SDS011;17745;55.914;37.554;2023-03-11T00:59:37;19.95;;;11.55;;
31087;SDS011;17745;55.914;37.554;2023-03-11T01:02:04;16.70;;;10.20;;
31087;SDS011;17745;55.914;37.554;2023-03-11T01:04:33;18.40;;;10.77;;
31087;SDS011;17745;55.914;37.554;2023-03-11T01:07:00;17.35;;;10.07;;
31087;SDS011;17745;55.914;37.554;2023-03-11T01:09:29;17.17;;;10.57;;
31087;SDS011;17745;55.914;37.554;2023-03-11T01:11:56;20.62;;;11.05;;
31087;SDS011;17745;55.914;37.554;2023-03-11T01:14:26;16.90;;;10.48;;
31087;SDS011;17745;55.914;37.554;2023-03-11T01:16:53;18.87;;;11.93;;
31087;SDS011;17745;55.914;37.554;2023-03-11T01:19:21;18.60;;;11.65;;
31087;SDS011;17745;55.914;37.554;2023-03-11T01:21:49;23.20;;;12.30;;
31087;SDS011;17745;55.914;37.554;2023-03-11T01:24:19;20.90;;;11.65;;
31087;SDS011;17745;55.914;37.554;2023-03-11T01:26:47;21.08;;;11.05;;
31087;SDS011;17745;55.914;37.554;2023-03-11T01:29:15;20.27;;;11.52;;
31087;SDS011;17745;55.914;37.554;2023-03-11T01:31:44;16.12;;;10.70;;
31087;SDS011;17745;55.914;37.554;2023-03-11T01:34:15;15.05;;;10.55;;
31087;SDS011;17745;55.914;37.554;2023-03-11T01:36:42;15.18;;;10.25;;
31087;SDS011;17745;55.914;37.554;2023-03-11T01:39:10;19.40;;;11.98;;
31087;SDS011;17745;55.914;37.554;2023-03-11T01:41:37;18.70;;;11.48;;
31087;SDS011;17745;55.914;37.554;2023-03-11T01:44:05;18.87;;;11.77;;
31087;SDS011;17745;55.914;37.554;2023-03-11T01:47:20;18.75;;;12.63;;
31087;SDS011;17745;55.914;37.554;2023-03-11T01:49:46;20.23;;;12.50;;
31087;SDS011;17745;55.914;37.554;2023-03-11T01:52:14;19.55;;;11.52;;
31087;SDS011;17745;55.914;37.554;2023-03-11T01:54:44;19.23;;;12.55;;
31087;SDS011;17745;55.914;37.554;2023-03-11T01:57:12;15.75;;;11.68;;
31087;SDS011;17745;55.914;37.554;2023-03-11T01:59:45;17.10;;;12.32;;
31087;SDS011;17745;55.914;37.554;2023-03-11T02:02:16;17.52;;;11.70;;
31087;SDS011;17745;55.914;37.554;2023-03-11T02:04:47;15.75;;;11.93;;
31087;SDS011;17745;55.914;37.554;2023-03-11T02:07:15;15.63;;;11.23;;
31087;SDS011;17745;55.914;37.554;2023-03-11T02:09:43;16.25;;;11.45;;
31087;SDS011;17745;55.914;37.554;2023-03-11T02:12:12;18.15;;;11.98;;
31087;SDS011;17745;55.914;37.554;2023-03-11T02:14:42;17.90;;;12.73;;
31087;SDS011;17745;55.914;37.554;2023-03-11T02:17:11;16.12;;;11.60;;
31087;SDS011;17745;55.914;37.554;2023-03-11T02:19:44;21.50;;;11.75;;
31087;SDS011;17745;55.914;37.554;2023-03-11T02:22:22;16.65;;;12.48;;
31087;SDS011;17745;55.914;37.554;2023-03-11T02:24:53;17.15;;;12.13;;
31087;SDS011;17745;55.914;37.554;2023-03-11T02:27:27;17.30;;;11.90;;
31087;SDS011;17745;55.914;37.554;2023-03-11T02:29:57;15.93;;;11.23;;
31087;SDS011;17745;55.914;37.554;2023-03-11T02:32:32;17.02;;;11.93;;
31087;SDS011;17745;55.914;37.554;2023-03-11T02:35:01;19.02;;;11.88;;
31087;SDS011;17745;55.914;37.554;2023-03-11T02:37:29;16.58;;;12.25;;
31087;SDS011;17745;55.914;37.554;2023-03-11T02:40:08;20.20;;;11.85;;
31087;SDS011;17745;55.914;37.554;2023-03-11T02:43:01;17.67;;;10.85;;
31087;SDS011;17745;55.914;37.554;2023-03-11T02:45:32;19.52;;;11.15;;
31087;SDS011;17745;55.914;37.554;2023-03-11T02:48:02;15.63;;;11.70;;
31087;SDS011;17745;55.914;37.554;2023-03-11T02:50:30;16.70;;;11.27;;
31087;SDS011;17745;55.914;37.554;2023-03-11T02:53:02;19.62;;;11.07;;
31087;SDS011;17745;55.914;37.554;2023-03-11T02:55:31;23.92;;;12.57;;
31087;SDS011;17745;55.914;37.554;2023-03-11T02:57:58;21.55;;;11.43;;
31087;SDS011;17745;55.914;37.554;2023-03-11T03:00:28;17.35;;;11.45;;
31087;SDS011;17745;55.914;37.554;2023-03-11T03:02:57;20.33;;;12.80;;
31087;SDS011;17745;55.914;37.554;2023-03-11T03:05:25;17.05;;;10.32;;
31087;SDS011;17745;55.914;37.554;2023-03-11T03:07:54;16.10;;;11.10;;
31087;SDS011;17745;55.914;37.554;2023-03-11T03:10:22;18.67;;;10.95;;
31087;SDS011;17745;55.914;37.554;2023-03-11T03:12:50;21.25;;;11.70;;
31087;SDS011;17745;55.914;37.554;2023-03-11T03:15:22;16.62;;;10.55;;
31087;SDS011;17745;55.914;37.554;2023-03-11T03:17:54;14.75;;;11.18;;
31087;SDS011;17745;55.914;37.554;2023-03-11T03:22:57;17.73;;;10.75;;
31087;SDS011;17745;55.914;37.554;2023-03-11T03:25:40;17.20;;;10.20;;
31087;SDS011;17745;55.914;37.554;2023-03-11T03:28:12;17.50;;;11.10;;
31087;SDS011;17745;55.914;37.554;2023-03-11T03:30:44;16.52;;;10.95;;
31087;SDS011;17745;55.914;37.554;2023-03-11T03:33:15;15.02;;;10.13;;
31087;SDS011;17745;55.914;37.554;2023-03-11T03:35:44;14.68;;;10.35;;
31087;SDS011;17745;55.914;37.554;2023-03-11T03:38:13;16.90;;;11.07;;
31087;SDS011;17745;55.914;37.554;2023-03-11T03:40:44;13.40;;;9.68;;
31087;SDS011;17745;55.914;37.554;2023-03-11T03:43:13;18.65;;;11.30;;
31087;SDS011;17745;55.914;37.554;2023-03-11T03:45:43;18.23;;;11.48;;
31087;SDS011;17745;55.914;37.554;2023-03-11T03:48:14;18.52;;;10.27;;
31087;SDS011;17745;55.914;37.554;2023-03-11T03:50:43;15.68;;;10.18;;
31087;SDS011;17745;55.914;37.554;2023-03-11T03:53:11;17.17;;;10.25;;
31087;SDS011;17745;55.914;37.554;2023-03-11T03:55:40;17.85;;;10.85;;
31087;SDS011;17745;55.914;37.554;2023-03-11T03:58:08;15.23;;;9.95;;
31087;SDS011;17745;55.914;37.554;2023-03-11T04:00:37;16.65;;;9.80;;
31087;SDS011;17745;55.914;37.554;2023-03-11T04:03:06;17.00;;;10.23;;
31087;SDS011;17745;55.914;37.554;2023-03-11T04:05:34;16.05;;;10.45;;
31087;SDS011;17745;55.914;37.554;2023-03-11T04:08:02;16.80;;;10.27;;
31087;SDS011;17745;55.914;37.554;2023-03-11T04:10:33;14.55;;;9.80;;
31087;SDS011;17745;55.914;37.554;2023-03-11T04:13:01;17.37;;;11.60;;
31087;SDS011;17745;55.914;37.554;2023-03-11T04:15:29;14.60;;;11.82;;
31087;SDS011;17745;55.914;37.554;2023-03-11T04:18:00;17.33;;;9.85;;
31087;SDS011;17745;55.914;37.554;2023-03-11T04:20:29;18.90;;;10.95;;
31087;SDS011;17745;55.914;37.554;2023-03-11T04:22:56;16.23;;;10.15;;
31087;SDS011;17745;55.914;37.554;2023-03-11T04:25:24;14.93;;;9.65;;
31087;SDS011;17745;55.914;37.554;2023-03-11T04:27:51;18.80;;;10.38;;
31087;SDS011;17745;55.914;37.554;2023-03-11T04:30:19;18.05;;;10.10;;
31087;SDS011;17745;55.914;37.554;2023-03-11T04:32:47;16.50;;;10.60;;
31087;SDS011;17745;55.914;37.554;2023-03-11T04:35:15;18.75;;;9.80;;
31087;SDS011;17745;55.914;37.554;2023-03-11T04:37:44;14.50;;;9.57;;
31087;SDS011;17745;55.914;37.554;2023-03-11T04:40:12;14.35;;;9.50;;
31087;SDS011;17745;55.914;37.554;2023-03-11T04:42:40;16.65;;;10.38;;
31087;SDS011;17745;55.914;37.554;2023-03-11T04:45:08;14.90;;;10.15;;
31087;SDS011;17745;55.914;37.554;2023-03-11T04:47:37;17.95;;;10.55;;
31087;SDS011;17745;55.914;37.554;2023-03-11T04:50:05;16.77;;;10.60;;
31087;SDS011;17745;55.914;37.554;2023-03-11T04:52:33;14.95;;;10.18;;
31087;SDS011;17745;55.914;37.554;2023-03-11T04:55:03;15.40;;;9.23;;
31087;SDS011;17745;55.914;37.554;2023-03-11T04:57:31;15.32;;;10.07;;
31087;SDS011;17745;55.914;37.554;2023-03-11T04:59:59;14.65;;;8.65;;
31087;SDS011;17745;55.914;37.554;2023-03-11T05:02:29;17.25;;;10.32;;
31087;SDS011;17745;55.914;37.554;2023-03-11T05:04:57;15.57;;;9.57;;
31087;SDS011;17745;55.914;37.554;2023-03-11T05:07:25;18.70;;;11.32;;
31087;SDS011;17745;55.914;37.554;2023-03-11T05:09:54;14.87;;;10.35;;
31087;SDS011;17745;55.914;37.554;2023-03-11T05:12:27;18.73;;;12.48;;
31087;SDS011;17745;55.914;37.554;2023-03-11T05:14:58;17.58;;;11.40;;
31087;SDS011;17745;55.914;37.554;2023-03-11T05:17:26;17.02;;;13.20;;
31087;SDS011;17745;55.914;37.554;2023-03-11T05:19:56;21.00;;;13.30;;
31087;SDS011;17745;55.914;37.554;2023-03-11T05:22:24;21.80;;;13.10;;
31087;SDS011;17745;55.914;37.554;2023-03-11T05:24:51;22.52;;;13.02;;
31087;SDS011;17745;55.914;37.554;2023-03-11T05:27:19;22.00;;;14.23;;
31087;SDS011;17745;55.914;37.554;2023-03-11T05:29:48;19.92;;;14.57;;
31087;SDS011;17745;55.914;37.554;2023-03-11T05:32:16;18.17;;;14.13;;
31087;SDS011;17745;55.914;37.554;2023-03-11T05:34:45;19.40;;;12.27;;
31087;SDS011;17745;55.914;37.554;2023-03-11T05:37:13;18.20;;;13.02;;
31087;SDS011;17745;55.914;37.554;2023-03-11T05:39:42;23.50;;;14.95;;
31087;SDS011;17745;55.914;37.554;2023-03-11T05:42:10;22.10;;;13.15;;
31087;SDS011;17745;55.914;37.554;2023-03-11T05:44:38;21.90;;;14.60;;
31087;SDS011;17745;55.914;37.554;2023-03-11T05:47:08;16.02;;;11.05;;
31087;SDS011;17745;55.914;37.554;2023-03-11T05:49:36;18.08;;;11.88;;
31087;SDS011;17745;55.914;37.554;2023-03-11T05:52:03;16.73;;;11.32;;
31087;SDS011;17745;55.914;37.554;2023-03-11T05:54:31;20.92;;;12.52;;
31087;SDS011;17745;55.914;37.554;2023-03-11T05:56:59;16.37;;;11.27;;
31087;SDS011;17745;55.914;37.554;2023-03-11T05:59:27;17.42;;;11.63;;
31087;SDS011;17745;55.914;37.554;2023-03-11T06:01:54;17.23;;;11.50;;
31087;SDS011;17745;55.914;37.554;2023-03-11T06:04:24;15.07;;;9.88;;
31087;SDS011;17745;55.914;37.554;2023-03-11T06:06:54;17.27;;;10.63;;
31087;SDS011;17745;55.914;37.554;2023-03-11T06:09:23;15.88;;;11.40;;
31087;SDS011;17745;55.914;37.554;2023-03-11T06:11:51;19.10;;;12.05;;
31087;SDS011;17745;55.914;37.554;2023-03-11T06:14:19;17.98;;;11.75;;
31087;SDS011;17745;55.914;37.554;2023-03-11T06:16:47;15.68;;;11.95;;
31087;SDS011;17745;55.914;37.554;2023-03-11T06:19:17;15.10;;;10.00;;
31087;SDS011;17745;55.914;37.554;2023-03-11T06:21:46;17.05;;;11.70;;
31087;SDS011;17745;55.914;37.554;2023-03-11T06:24:15;17.40;;;11.98;;
31087;SDS011;17745;55.914;37.554;2023-03-11T06:26:49;23.23;;;11.93;;
31087;SDS011;17745;55.914;37.554;2023-03-11T06:35:56;16.42;;;10.52;;
31087;SDS011;17745;55.914;37.554;2023-03-11T06:38:32;18.00;;;10.85;;
31087;SDS011;17745;55.914;37.554;2023-03-11T06:41:03;16.95;;;11.40;;
31087;SDS011;17745;55.914;37.554;2023-03-11T06:43:33;13.80;;;10.30;;
31087;SDS011;17745;55.914;37.554;2023-03-11T06:46:07;18.35;;;11.65;;
31087;SDS011;17745;55.914;37.554;2023-03-11T06:48:35;23.10;;;11.73;;
31087;SDS011;17745;55.914;37.554;2023-03-11T06:51:03;18.12;;;11.23;;
31087;SDS011;17745;55.914;37.554;2023-03-11T06:54:25;18.48;;;10.57;;
31087;SDS011;17745;55.914;37.554;2023-03-11T06:59:57;19.40;;;10.93;;
31087;SDS011;17745;55.914;37.554;2023-03-11T07:03:12;15.40;;;9.50;;
31087;SDS011;17745;55.914;37.554;2023-03-11T07:08:32;18.60;;;9.73;;
31087;SDS011;17745;55.914;37.554;2023-03-11T07:11:12;14.82;;;10.07;;
31087;SDS011;17745;55.914;37.554;2023-03-11T07:13:44;15.68;;;10.02;;
31087;SDS011;17745;55.914;37.554;2023-03-11T07:16:14;14.70;;;8.57;;
31087;SDS011;17745;55.914;37.554;2023-03-11T07:18:44;14.20;;;9.02;;
31087;SDS011;17745;55.914;37.554;2023-03-11T07:21:14;15.00;;;9.93;;
31087;SDS011;17745;55.914;37.554;2023-03-11T07:23:45;13.10;;;9.68;;
31087;SDS011;17745;55.914;37.554;2023-03-11T07:26:18;14.68;;;9.73;;
31087;SDS011;17745;55.914;37.554;2023-03-11T07:28:45;16.12;;;10.27;;
31087;SDS011;17745;55.914;37.554;2023-03-11T07:31:14;16.37;;;10.10;;
31087;SDS011;17745;55.914;37.554;2023-03-11T07:33:44;13.50;;;9.50;;
31087;SDS011;17745;55.914;37.554;2023-03-11T07:36:12;17.95;;;10.88;;
31087;SDS011;17745;55.914;37.554;2023-03-11T07:38:41;16.37;;;8.52;;
31087;SDS011;17745;55.914;37.554;2023-03-11T07:41:14;18.87;;;11.23;;
31087;SDS011;17745;55.914;37.554;2023-03-11T07:43:46;16.10;;;10.95;;
31087;SDS011;17745;55.914;37.554;2023-03-11T07:46:19;15.50;;;9.68;;
31087;SDS011;17745;55.914;37.554;2023-03-11T07:48:51;16.02;;;9.93;;
31087;SDS011;17745;55.914;37.554;2023-03-11T07:51:23;11.23;;;8.43;;
31087;SDS011;17745;55.914;37.554;2023-03-11T07:53:52;14.40;;;9.88;;
31087;SDS011;17745;55.914;37.554;2023-03-11T07:56:29;9.90;;;6.57;;
31087;SDS011;17745;55.914;37.554;2023-03-11T07:59:01;12.18;;;8.85;;
31087;SDS011;17745;55.914;37.554;2023-03-11T08:01:33;13.05;;;7.12;;
31087;SDS011;17745;55.914;37.554;2023-03-11T08:04:06;11.75;;;8.45;;
31087;SDS011;17745;55.914;37.554;2023-03-11T08:06:42;14.73;;;9.35;;
31087;SDS011;17745;55.914;37.554;2023-03-11T08:09:18;12.88;;;8.13;;
31087;SDS011;17745;55.914;37.554;2023-03-11T08:11:47;12.90;;;8.75;;
31087;SDS011;17745;55.914;37.554;2023-03-11T08:14:15;12.60;;;7.75;;
31087;SDS011;17745;55.914;37.554;2023-03-11T08:16:51;11.38;;;6.85;;
31087;SDS011;17745;55.914;37.554;2023-03-11T08:19:19;14.25;;;8.80;;
31087;SDS011;17745;55.914;37.554;2023-03-11T08:21:49;12.82;;;7.95;;
31087;SDS011;17745;55.914;37.554;2023-03-11T08:24:17;8.85;;;6.57;;
31087;SDS011;17745;55.914;37.554;2023-03-11T08:26:45;12.43;;;8.30;;
31087;SDS011;17745;55.914;37.554;2023-03-11T08:31:47;11.25;;;8.10;;
31087;SDS011;17745;55.914;37.554;2023-03-11T08:34:18;12.68;;;8.25;;
31087;SDS011;17745;55.914;37.554;2023-03-11T08:36:47;14.93;;;7.60;;
31087;SDS011;17745;55.914;37.554;2023-03-11T08:39:15;12.70;;;8.35;;
31087;SDS011;17745;55.914;37.554;2023-03-11T08:44:35;12.30;;;7.60;;
31087;SDS011;17745;55.914;37.554;2023-03-11T08:47:05;13.18;;;5.93;;
31087;SDS011;17745;55.914;37.554;2023-03-11T08:49:34;11.15;;;7.47;;
31087;SDS011;17745;55.914;37.554;2023-03-11T08:52:04;12.63;;;7.07;;
31087;SDS011;17745;55.914;37.554;2023-03-11T08:54:32;11.32;;;6.85;;
31087;SDS011;17745;55.914;37.554;2023-03-11T08:57:02;17.50;;;7.80;;
31087;SDS011;17745;55.914;37.554;2023-03-11T08:59:29;10.43;;;6.43;;
31087;SDS011;17745;55.914;37.554;2023-03-11T09:01:57;10.68;;;7.45;;
31087;SDS011;17745;55.914;37.554;2023-03-11T09:04:27;11.93;;;7.47;;
31087;SDS011;17745;55.914;37.554;2023-03-11T09:06:55;11.52;;;7.45;;
31087;SDS011;17745;55.914;37.554;2023-03-11T09:09:23;13.02;;;8.50;;
31087;SDS011;17745;55.914;37.554;2023-03-11T09:11:51;16.65;;;8.52;;
31087;SDS011;17745;55.914;37.554;2023-03-11T09:14:20;15.68;;;8.88;;
31087;SDS011;17745;55.914;37.554;2023-03-11T09:16:47;14.32;;;9.32;;
31087;SDS011;17745;55.914;37.554;2023-03-11T09:19:15;16.15;;;9.73;;
31087;SDS011;17745;55.914;37.554;2023-03-11T09:21:43;17.30;;;9.77;;
31087;SDS011;17745;55.914;37.554;2023-03-11T09:24:13;14.15;;;9.48;;
31087;SDS011;17745;55.914;37.554;2023-03-11T09:26:47;32.25;;;10.63;;
31087;SDS011;17745;55.914;37.554;2023-03-11T09:29:20;14.23;;;8.20;;
31087;SDS011;17745;55.914;37.554;2023-03-11T09:31:49;16.25;;;10.05;;
31087;SDS011;17745;55.914;37.554;2023-03-11T09:34:18;19.08;;;9.75;;
31087;SDS011;17745;55.914;37.554;2023-03-11T09:36:47;14.63;;;9.20;;
31087;SDS011;17745;55.914;37.554;2023-03-11T09:39:23;16.75;;;10.05;;
31087;SDS011;17745;55.914;37.554;2023-03-11T09:41:52;12.30;;;7.60;;
31087;SDS011;17745;55.914;37.554;2023-03-11T09:44:24;13.80;;;8.48;;
31087;SDS011;17745;55.914;37.554;2023-03-11T09:47:14;11.02;;;8.02;;
31087;SDS011;17745;55.914;37.554;2023-03-11T09:50:01;13.97;;;8.93;;
31087;SDS011;17745;55.914;37.554;2023-03-11T09:55:20;13.90;;;8.90;;
31087;SDS011;17745;55.914;37.554;2023-03-11T09:58:09;12.73;;;8.07;;
31087;SDS011;17745;55.914;37.554;2023-03-11T10:00:44;15.07;;;8.85;;
31087;SDS011;17745;55.914;37.554;2023-03-11T10:03:16;14.15;;;9.00;;
31087;SDS011;17745;55.914;37.554;2023-03-11T10:05:53;15.63;;;9.02;;
31087;SDS011;17745;55.914;37.554;2023-03-11T10:11:00;14.48;;;8.10;;
31087;SDS011;17745;55.914;37.554;2023-03-11T10:13:37;11.98;;;7.72;;
31087;SDS011;17745;55.914;37.554;2023-03-11T10:16:13;13.43;;;8.40;;
31087;SDS011;17745;55.914;37.554;2023-03-11T10:18:52;12.23;;;8.07;;
31087;SDS011;17745;55.914;37.554;2023-03-11T10:21:31;13.55;;;7.18;;
31087;SDS011;17745;55.914;37.554;2023-03-11T10:24:16;11.57;;;8.13;;
31087;SDS011;17745;55.914;37.554;2023-03-11T10:26:55;15.50;;;8.32;;
31087;SDS011;17745;55.914;37.554;2023-03-11T10:29:28;10.57;;;7.70;;
31087;SDS011;17745;55.914;37.554;2023-03-11T10:31:59;10.27;;;7.37;;
31087;SDS011;17745;55.914;37.554;2023-03-11T10:34:36;13.18;;;7.57;;
31087;SDS011;17745;55.914;37.554;2023-03-11T10:37:10;11.93;;;7.68;;
31087;SDS011;17745;55.914;37.554;2023-03-11T10:39:43;10.38;;;6.57;;
31087;SDS011;17745;55.914;37.554;2023-03-11T10:42:13;10.77;;;7.87;;
31087;SDS011;17745;55.914;37.554;2023-03-11T10:44:45;10.65;;;7.35;;
31087;SDS011;17745;55.914;37.554;2023-03-11T10:47:16;12.35;;;7.30;;
31087;SDS011;17745;55.914;37.554;2023-03-11T10:49:45;12.52;;;6.85;;
31087;SDS011;17745;55.914;37.554;2023-03-11T10:52:13;11.43;;;7.12;;
31087;SDS011;17745;55.914;37.554;2023-03-11T10:54:41;9.85;;;6.78;;
31087;SDS011;17745;55.914;37.554;2023-03-11T10:57:21;12.85;;;7.78;;
31087;SDS011;17745;55.914;37.554;2023-03-11T10:59:51;11.07;;;7.12;;
31087;SDS011;17745;55.914;37.554;2023-03-11T11:02:23;10.63;;;6.62;;
31087;SDS011;17745;55.914;37.554;2023-03-11T11:07:51;14.20;;;7.87;;
31087;SDS011;17745;55.914;37.554;2023-03-11T11:10:30;10.63;;;7.05;;
31087;SDS011;17745;55.914;37.554;2023-03-11T11:13:02;12.25;;;8.10;;
31087;SDS011;17745;55.914;37.554;2023-03-11T11:15:53;12.23;;;7.65;;
31087;SDS011;17745;55.914;37.554;2023-03-11T11:18:25;13.50;;;8.18;;
31087;SDS011;17745;55.914;37.554;2023-03-11T11:21:05;11.57;;;7.43;;
31087;SDS011;17745;55.914;37.554;2023-03-11T11:23:37;11.77;;;7.53;;
31087;SDS011;17745;55.914;37.554;2023-03-11T11:26:13;15.63;;;8.73;;
31087;SDS011;17745;55.914;37.554;2023-03-11T11:29:03;13.95;;;8.00;;
31087;SDS011;17745;55.914;37.554;2023-03-11T11:31:42;13.52;;;7.25;;
31087;SDS011;17745;55.914;37.554;2023-03-11T11:34:28;10.38;;;7.00;;
31087;SDS011;17745;55.914;37.554;2023-03-11T11:37:00;12.32;;;7.55;;
31087;SDS011;17745;55.914;37.554;2023-03-11T11:39:41;14.85;;;8.30;;
31087;SDS011;17745;55.914;37.554;2023-03-11T11:42:18;12.13;;;7.93;;
31087;SDS011;17745;55.914;37.554;2023-03-11T11:47:23;11.93;;;8.32;;
31087;SDS011;17745;55.914;37.554;2023-03-11T11:49:55;13.57;;;8.18;;
31087;SDS011;17745;55.914;37.554;2023-03-11T11:54:57;14.93;;;9.63;;
31087;SDS011;17745;55.914;37.554;2023-03-11T11:57:33;13.70;;;7.95;;
31087;SDS011;17745;55.914;37.554;2023-03-11T12:00:12;12.30;;;7.47;;
31087;SDS011;17745;55.914;37.554;2023-03-11T12:03:04;13.80;;;9.43;;
31087;SDS011;17745;55.914;37.554;2023-03-11T12:05:53;13.88;;;9.05;;
31087;SDS011;17745;55.914;37.554;2023-03-11T12:08:29;13.88;;;8.98;;
31087;SDS011;17745;55.914;37.554;2023-03-11T12:11:06;15.70;;;9.95;;
31087;SDS011;17745;55.914;37.554;2023-03-11T12:13:49;14.95;;;9.70;;
31087;SDS011;17745;55.914;37.554;2023-03-11T12:16:34;14.35;;;9.48;;
31087;SDS011;17745;55.914;37.554;2023-03-11T12:19:16;11.80;;;8.38;;
31087;SDS011;17745;55.914;37.554;2023-03-11T12:25:25;15.25;;;8.77;;
31087;SDS011;17745;55.914;37.554;2023-03-11T12:28:14;13.98;;;8.60;;
31087;SDS011;17745;55.914;37.554;2023-03-11T12:30:52;12.90;;;9.00;;
31087;SDS011;17745;55.914;37.554;2023-03-11T12:33:34;13.02;;;8.75;;
31087;SDS011;17745;55.914;37.554;2023-03-11T12:36:20;13.73;;;9.40;;
31087;SDS011;17745;55.914;37.554;2023-03-11T12:39:04;13.23;;;9.68;;
31087;SDS011;17745;55.914;37.554;2023-03-11T12:42:14;16.08;;;9.32;;
31087;SDS011;17745;55.914;37.554;2023-03-11T12:44:56;15.60;;;9.77;;
31087;SDS011;17745;55.914;37.554;2023-03-11T12:48:31;14.95;;;9.13;;
31087;SDS011;17745;55.914;37.554;2023-03-11T12:51:00;12.40;;;8.85;;
31087;SDS011;17745;55.914;37.554;2023-03-11T12:56:24;11.05;;;7.53;;
31087;SDS011;17745;55.914;37.554;2023-03-11T12:59:03;12.65;;;8.60;;
31087;SDS011;17745;55.914;37.554;2023-03-11T13:01:52;12.43;;;8.45;;
31087;SDS011;17745;55.914;37.554;2023-03-11T13:04:35;13.25;;;9.27;;
31087;SDS011;17745;55.914;37.554;2023-03-11T13:16:40;13.20;;;8.48;;
31087;SDS011;17745;55.914;37.554;2023-03-11T13:22:07;11.93;;;8.18;;
31087;SDS011;17745;55.914;37.554;2023-03-11T13:25:26;16.58;;;9.23;;
31087;SDS011;17745;55.914;37.554;2023-03-11T13:34:26;8.65;;;5.87;;
31087;SDS011;17745;55.914;37.554;2023-03-11T13:37:09;15.45;;;8.98;;
31087;SDS011;17745;55.914;37.554;2023-03-11T13:39:55;12.70;;;9.35;;
31087;SDS011;17745;55.914;37.554;2023-03-11T13:42:36;12.90;;;8.52;;
31087;SDS011;17745;55.914;37.554;2023-03-11T13:47:56;15.70;;;10.02;;
31087;SDS011;17745;55.914;37.554;2023-03-11T13:50:35;14.73;;;8.80;;
31087;SDS011;17745;55.914;37.554;2023-03-11T13:53:12;22.73;;;10.65;;
31087;SDS011;17745;55.914;37.554;2023-03-11T13:55:47;14.82;;;8.38;;
31087;SDS011;17745;55.914;37.554;2023-03-11T13:58:21;11.33;;;8.20;;
31087;SDS011;17745;55.914;37.554;2023-03-11T14:00:55;15.10;;;9.57;;
31087;SDS011;17745;55.914;37.554;2023-03-11T14:03:31;20.40;;;9.48;;
31087;SDS011;17745;55.914;37.554;2023-03-11T14:06:07;13.15;;;9.38;;
31087;SDS011;17745;55.914;37.554;2023-03-11T14:08:43;20.60;;;10.98;;
31087;SDS011;17745;55.914;37.554;2023-03-11T14:11:19;15.43;;;7.93;;
31087;SDS011;17745;55.914;37.554;2023-03-11T14:13:52;15.02;;;8.48;;
31087;SDS011;17745;55.914;37.554;2023-03-11T14:16:22;19.33;;;10.63;;
31087;SDS011;17745;55.914;37.554;2023-03-11T14:19:02;17.48;;;8.35;;
31087;SDS011;17745;55.914;37.554;2023-03-11T14:22:08;16.92;;;10.68;;
31087;SDS011;17745;55.914;37.554;2023-03-11T14:24:45;14.73;;;10.90;;
31087;SDS011;17745;55.914;37.554;2023-03-11T14:29:52;16.58;;;10.15;;
31087;SDS011;17745;55.914;37.554;2023-03-11T14:32:24;13.60;;;7.93;;
31087;SDS011;17745;55.914;37.554;2023-03-11T14:34:55;14.18;;;9.23;;
31087;SDS011;17745;55.914;37.554;2023-03-11T14:37:26;17.80;;;9.77;;
31087;SDS011;17745;55.914;37.554;2023-03-11T14:40:02;18.12;;;11.52;;
31087;SDS011;17745;55.914;37.554;2023-03-11T14:42:52;18.08;;;10.43;;
31087;SDS011;17745;55.914;37.554;2023-03-11T14:45:22;20.15;;;10.63;;
31087;SDS011;17745;55.914;37.554;2023-03-11T14:47:54;17.95;;;10.00;;
31087;SDS011;17745;55.914;37.554;2023-03-11T14:50:25;19.83;;;11.45;;
31087;SDS011;17745;55.914;37.554;2023-03-11T14:52:57;19.55;;;11.05;;
31087;SDS011;17745;55.914;37.554;2023-03-11T14:55:34;11.20;;;8.07;;
31087;SDS011;17745;55.914;37.554;2023-03-11T14:58:05;21.95;;;12.30;;
31087;SDS011;17745;55.914;37.554;2023-03-11T15:00:43;27.25;;;13.88;;
31087;SDS011;17745;55.914;37.554;2023-03-11T15:03:21;19.70;;;9.27;;
31087;SDS011;17745;55.914;37.554;2023-03-11T15:05:54;19.20;;;9.57;;
31087;SDS011;17745;55.914;37.554;2023-03-11T15:08:29;21.00;;;12.02;;
31087;SDS011;17745;55.914;37.554;2023-03-11T15:11:04;28.00;;;11.43;;
31087;SDS011;17745;55.914;37.554;2023-03-11T15:13:49;21.85;;;11.48;;
31087;SDS011;17745;55.914;37.554;2023-03-11T15:16:25;18.75;;;11.02;;
31087;SDS011;17745;55.914;37.554;2023-03-11T15:19:19;20.33;;;10.98;;
31087;SDS011;17745;55.914;37.554;2023-03-11T15:22:04;19.25;;;11.27;;
31087;SDS011;17745;55.914;37.554;2023-03-11T15:24:49;13.85;;;9.73;;
31087;SDS011;17745;55.914;37.554;2023-03-11T15:27:22;23.45;;;12.37;;
31087;SDS011;17745;55.914;37.554;2023-03-11T15:29:57;20.67;;;12.25;;
31087;SDS011;17745;55.914;37.554;2023-03-11T15:32:35;20.12;;;12.05;;
31087;SDS011;17745;55.914;37.554;2023-03-11T15:35:20;20.55;;;10.95;;
31087;SDS011;17745;55.914;37.554;2023-03-11T15:40:39;16.48;;;9.30;;
31087;SDS011;17745;55.914;37.554;2023-03-11T15:43:23;22.42;;;11.05;;
31087;SDS011;17745;55.914;37.554;2023-03-11T15:45:56;16.12;;;10.00;;
31087;SDS011;17745;55.914;37.554;2023-03-11T15:48:26;15.25;;;9.98;;
31087;SDS011;17745;55.914;37.554;2023-03-11T15:50:57;21.30;;;11.10;;
31087;SDS011;17745;55.914;37.554;2023-03-11T15:53:28;14.00;;;8.57;;
31087;SDS011;17745;55.914;37.554;2023-03-11T15:56:01;20.05;;;12.07;;